Time;durP1;ratioP1;P1;durP2;ratioP2;P2;SDS_P1;SDS_P2;PMS_P1;PMS_P2;Temp;Humidity;BMP_temperature;BMP_pressure;BME280_temperature;BME280_humidity;BME280_pressure;Samples;Min_cycle;Max_cycle;Signal;HPM_P1;HPM_P2
2021/12/22 00:02:10;;;;;;;27.70;14.85;;;-2.00;99.90;;;;;;5057981;28;20037;-76
2021/12/22 00:04:43;;;;;;;21.92;13.35;;;-1.30;99.90;;;;;;5052557;28;20040;-75
2021/12/22 00:07:09;;;;;;;24.05;12.68;;;-2.00;99.90;;;;;;5056888;28;20097;-76
2021/12/22 00:09:35;;;;;;;23.00;13.07;;;-2.00;99.90;;;;;;5032161;28;20033;-75
2021/12/22 00:12:02;;;;;;;25.20;14.10;;;-2.00;99.90;;;;;;5033448;28;20041;-75
2021/12/22 00:14:27;;;;;;;22.38;12.65;;;-2.10;99.90;;;;;;5018611;28;20059;-75
2021/12/22 00:16:53;;;;;;;25.25;13.05;;;-2.10;99.90;;;;;;5085265;28;20044;-75
2021/12/22 00:19:19;;;;;;;22.00;12.82;;;-2.10;99.90;;;;;;5071697;28;20043;-75
2021/12/22 00:21:45;;;;;;;21.63;11.85;;;-2.00;99.90;;;;;;5002323;28;20044;-76
2021/12/22 00:24:10;;;;;;;26.63;14.13;;;-2.20;99.90;;;;;;5024688;28;20520;-75
2021/12/22 00:26:36;;;;;;;33.50;15.75;;;-2.20;99.90;;;;;;5067311;28;20438;-75
2021/12/22 00:29:02;;;;;;;26.35;13.68;;;-2.20;99.90;;;;;;5050454;28;20090;-75
2021/12/22 00:31:28;;;;;;;26.63;14.10;;;-2.20;99.90;;;;;;5068588;28;20299;-75
2021/12/22 00:33:56;;;;;;;28.20;15.30;;;-2.20;99.90;;;;;;5046645;28;20488;-75
2021/12/22 00:36:24;;;;;;;26.90;14.10;;;-2.20;99.90;;;;;;5035839;28;20043;-75
2021/12/22 00:38:51;;;;;;;25.08;13.95;;;-2.20;99.90;;;;;;5033982;28;20040;-75
2021/12/22 00:41:17;;;;;;;29.50;15.40;;;-2.20;99.90;;;;;;5045268;28;20273;-76
2021/12/22 00:43:43;;;;;;;26.00;14.07;;;-2.20;99.90;;;;;;5079193;28;20044;-75
2021/12/22 00:46:12;;;;;;;25.23;14.30;;;-2.30;99.90;;;;;;5045258;28;20059;-76
2021/12/22 00:48:38;;;;;;;23.67;13.90;;;-2.20;99.90;;;;;;5028730;28;20087;-76
2021/12/22 00:51:04;;;;;;;26.30;14.10;;;-2.30;99.90;;;;;;5048676;28;20029;-75
2021/12/22 00:53:30;;;;;;;24.02;13.27;;;-2.30;99.90;;;;;;5056344;28;20147;-76
2021/12/22 00:55:56;;;;;;;24.20;14.25;;;-2.30;99.90;;;;;;5024258;28;20392;-76
2021/12/22 00:58:22;;;;;;;24.35;13.65;;;-2.40;99.90;;;;;;5054635;28;20071;-76
2021/12/22 01:00:49;;;;;;;25.73;14.65;;;-2.30;99.90;;;;;;5052562;28;20039;-76
2021/12/22 01:03:16;;;;;;;25.33;14.63;;;-1.30;99.90;;;;;;5048198;28;20052;-75
2021/12/22 01:05:42;;;;;;;28.30;15.35;;;-2.40;99.90;;;;;;5028907;28;20051;-76
2021/12/22 01:08:08;;;;;;;25.95;14.43;;;-2.40;99.90;;;;;;5064840;28;20040;-76
2021/12/22 01:10:34;;;;;;;29.50;14.73;;;-2.30;99.90;;;;;;5052473;28;20041;-76
2021/12/22 01:13:02;;;;;;;24.20;13.77;;;-2.30;99.90;;;;;;5049673;28;20408;-76
2021/12/22 01:15:29;;;;;;;23.23;13.80;;;-2.40;99.90;;;;;;5078109;28;20037;-76
2021/12/22 01:18:03;;;;;;;22.40;14.27;;;-2.20;99.90;;;;;;5019558;28;20072;-76
2021/12/22 01:20:35;;;;;;;23.30;13.32;;;-2.40;99.90;;;;;;5048586;28;20492;-76
2021/12/22 01:23:03;;;;;;;24.10;12.50;;;-2.50;99.90;;;;;;5050777;28;20067;-75
2021/12/22 01:25:31;;;;;;;21.35;13.65;;;-2.20;99.90;;;;;;5053346;28;20055;-75
2021/12/22 01:27:58;;;;;;;24.30;13.65;;;-2.50;99.90;;;;;;5014121;28;20052;-75
2021/12/22 01:30:27;;;;;;;24.15;14.38;;;-2.60;99.90;;;;;;5066168;28;20098;-75
2021/12/22 01:32:55;;;;;;;22.77;13.18;;;-1.80;99.90;;;;;;5085543;28;20025;-75
2021/12/22 01:35:25;;;;;;;22.85;13.15;;;-2.30;99.90;;;;;;5048441;28;20045;-75
2021/12/22 01:37:51;;;;;;;27.88;13.82;;;-2.60;99.90;;;;;;5051004;28;20577;-74
2021/12/22 01:40:18;;;;;;;22.60;12.13;;;-2.60;99.90;;;;;;5034827;28;20127;-75
2021/12/22 01:42:45;;;;;;;24.08;12.55;;;-2.60;99.90;;;;;;5030037;28;20090;-76
2021/12/22 01:45:48;;;;;;;22.35;14.07;;;-2.70;99.90;;;;;;5061118;28;20049;-76
2021/12/22 01:51:06;;;;;;;28.42;13.10;;;-2.80;99.90;;;;;;5050606;28;20055;-76
2021/12/22 01:53:40;;;;;;;22.42;13.40;;;-2.70;99.90;;;;;;5033250;28;20059;-76
2021/12/22 01:56:28;;;;;;;25.70;12.68;;;-2.90;99.90;;;;;;5063795;28;20086;-76
2021/12/22 01:58:57;;;;;;;21.92;12.23;;;-2.80;99.90;;;;;;5081366;28;20055;-75
2021/12/22 02:01:24;;;;;;;22.88;13.15;;;-2.70;99.90;;;;;;5052453;28;20048;-76
2021/12/22 02:03:52;;;;;;;24.02;13.80;;;-2.80;99.90;;;;;;5033109;28;20351;-76
2021/12/22 02:06:19;;;;;;;21.77;13.18;;;-2.70;99.90;;;;;;5047957;28;20044;-76
2021/12/22 02:08:45;;;;;;;19.38;12.23;;;-2.10;99.90;;;;;;5050981;28;20032;-76
2021/12/22 02:11:14;;;;;;;22.65;12.65;;;-2.70;99.90;;;;;;5053686;28;20527;-76
2021/12/22 02:13:43;;;;;;;26.42;14.70;;;-2.80;99.90;;;;;;5019003;28;20481;-76
2021/12/22 02:16:13;;;;;;;24.65;14.35;;;-2.80;99.90;;;;;;5046494;28;20037;-76
2021/12/22 02:18:52;;;;;;;24.20;13.38;;;-2.90;99.90;;;;;;5042433;28;20040;-76
2021/12/22 02:21:19;;;;;;;28.33;14.77;;;-2.90;99.90;;;;;;5045769;28;20032;-76
2021/12/22 02:23:45;;;;;;;23.38;13.50;;;-2.90;99.90;;;;;;5034504;28;20028;-76
2021/12/22 02:26:19;;;;;;;28.55;14.43;;;-2.90;99.90;;;;;;5034700;28;20055;-76
2021/12/22 02:28:48;;;;;;;27.10;14.40;;;-2.90;99.90;;;;;;5050353;28;20048;-76
2021/12/22 02:31:18;;;;;;;27.80;13.80;;;-3.00;99.90;;;;;;5071284;28;20116;-76
2021/12/22 02:33:48;;;;;;;27.60;14.30;;;-3.00;99.90;;;;;;5047823;28;20472;-76
2021/12/22 02:38:44;;;;;;;26.45;14.52;;;-3.00;99.90;;;;;;5080024;28;20560;-76
2021/12/22 02:41:14;;;;;;;27.90;15.25;;;-3.10;99.90;;;;;;5017434;28;20109;-76
2021/12/22 02:43:50;;;;;;;31.85;15.32;;;-3.00;99.90;;;;;;5083987;28;20040;-76
2021/12/22 02:46:22;;;;;;;29.67;15.20;;;-3.00;99.90;;;;;;5042178;28;20497;-76
2021/12/22 02:48:49;;;;;;;33.13;15.43;;;-3.00;99.90;;;;;;5080658;28;20123;-76
2021/12/22 02:51:15;;;;;;;32.08;16.05;;;-3.10;99.90;;;;;;5044503;28;20231;-76
2021/12/22 02:53:51;;;;;;;33.58;15.77;;;-3.10;99.90;;;;;;5066335;28;20036;-76
2021/12/22 03:01:52;;;;;;;31.60;15.75;;;-3.10;99.90;;;;;;5051216;28;21538;-76
2021/12/22 03:04:18;;;;;;;24.17;13.40;;;-3.10;99.90;;;;;;5046702;28;20037;-76
2021/12/22 03:07:10;;;;;;;23.63;14.57;;;-3.20;99.90;;;;;;5069187;28;20036;-76
2021/12/22 03:09:37;;;;;;;23.95;13.75;;;-3.20;99.90;;;;;;5046222;28;20037;-76
2021/12/22 03:12:09;;;;;;;28.98;15.68;;;-2.60;99.90;;;;;;5049753;28;20036;-77
2021/12/22 03:14:35;;;;;;;28.73;15.25;;;-3.20;99.90;;;;;;5049102;28;20309;-76
2021/12/22 03:17:01;;;;;;;27.83;14.25;;;-2.60;99.90;;;;;;5016561;28;20411;-76
2021/12/22 03:19:34;;;;;;;27.88;14.13;;;-3.30;99.90;;;;;;5017485;28;20523;-76
2021/12/22 03:22:04;;;;;;;28.42;15.57;;;-3.20;99.90;;;;;;5032373;28;20131;-76
2021/12/22 03:24:32;;;;;;;25.05;13.38;;;-3.30;99.90;;;;;;5084956;28;20095;-76
2021/12/22 03:27:02;;;;;;;25.95;14.65;;;-3.30;99.90;;;;;;5030137;28;20043;-76
2021/12/22 03:29:29;;;;;;;26.67;16.25;;;-3.30;99.90;;;;;;5064417;28;20036;-76
2021/12/22 03:31:55;;;;;;;27.95;14.48;;;-2.70;99.90;;;;;;5028975;28;20039;-76
2021/12/22 03:34:21;;;;;;;27.05;15.20;;;-3.30;99.90;;;;;;5016140;28;20480;-76
2021/12/22 03:36:47;;;;;;;28.00;14.68;;;-3.30;99.90;;;;;;5045060;28;20035;-76
2021/12/22 03:39:14;;;;;;;25.38;15.18;;;-3.30;99.90;;;;;;5041228;28;20452;-76
2021/12/22 03:41:41;;;;;;;24.85;14.48;;;-3.30;99.90;;;;;;5046083;28;20117;-76
2021/12/22 03:44:08;;;;;;;26.92;15.02;;;-3.20;99.90;;;;;;5040250;28;20049;-76
2021/12/22 03:46:34;;;;;;;28.45;15.32;;;-3.50;99.90;;;;;;5047990;28;20057;-76
2021/12/22 03:49:00;;;;;;;23.48;14.75;;;-3.40;99.90;;;;;;5082408;28;20053;-76
2021/12/22 03:51:28;;;;;;;29.30;14.95;;;-3.40;99.90;;;;;;5077386;28;20405;-76
2021/12/22 03:53:54;;;;;;;21.63;13.57;;;-3.40;99.90;;;;;;5040485;28;20029;-76
2021/12/22 03:56:21;;;;;;;24.25;14.60;;;-3.40;99.90;;;;;;5045786;28;20046;-76
2021/12/22 03:58:46;;;;;;;26.77;13.70;;;-3.50;99.90;;;;;;5033034;28;20076;-77
2021/12/22 04:01:13;;;;;;;23.65;14.43;;;-3.50;99.90;;;;;;5044787;28;20094;-76
2021/12/22 04:03:40;;;;;;;25.27;14.43;;;-3.40;99.90;;;;;;5066164;28;20045;-76
2021/12/22 04:06:06;;;;;;;24.95;14.10;;;-3.50;99.90;;;;;;5072258;28;20049;-76
2021/12/22 04:08:33;;;;;;;23.90;13.35;;;-3.50;99.90;;;;;;5042232;28;20052;-76
2021/12/22 04:10:59;;;;;;;22.80;13.50;;;-3.50;99.90;;;;;;5031733;28;20032;-76
2021/12/22 04:13:24;;;;;;;23.27;13.50;;;-3.50;99.90;;;;;;5040764;28;20036;-76
2021/12/22 04:15:50;;;;;;;23.85;13.85;;;-3.50;99.90;;;;;;5022607;28;20029;-76
2021/12/22 04:18:17;;;;;;;26.33;14.60;;;-3.60;99.90;;;;;;5061566;28;20090;-76
2021/12/22 04:20:43;;;;;;;22.55;13.40;;;-3.60;99.90;;;;;;5051093;28;20037;-75
2021/12/22 04:23:09;;;;;;;26.55;13.65;;;-3.60;99.90;;;;;;5046376;28;20035;-75
2021/12/22 04:25:36;;;;;;;25.75;13.95;;;-3.60;99.90;;;;;;5079377;28;20082;-75
2021/12/22 04:28:06;;;;;;;22.42;13.75;;;-3.60;99.90;;;;;;5049990;28;20090;-76
2021/12/22 04:30:34;;;;;;;31.45;14.80;;;-3.70;99.90;;;;;;5056665;28;20511;-76
2021/12/22 04:33:00;;;;;;;21.83;12.73;;;-3.40;99.90;;;;;;5025274;28;20048;-76
2021/12/22 04:35:26;;;;;;;26.17;13.52;;;-3.70;99.90;;;;;;5045678;28;20087;-76
2021/12/22 04:37:52;;;;;;;22.90;13.70;;;-3.70;99.90;;;;;;5063403;28;20482;-76
2021/12/22 04:40:18;;;;;;;23.55;13.82;;;-3.70;99.90;;;;;;5053848;28;20436;-76
2021/12/22 04:42:44;;;;;;;26.70;13.20;;;-3.70;99.90;;;;;;5023884;28;20029;-76
2021/12/22 04:45:12;;;;;;;21.48;11.93;;;-3.70;99.90;;;;;;5047788;28;20051;-76
2021/12/22 04:47:38;;;;;;;26.67;14.63;;;-3.70;99.90;;;;;;5033509;28;20147;-76
2021/12/22 04:50:09;;;;;;;22.92;13.05;;;-3.70;99.90;;;;;;5035724;28;20040;-77
2021/12/22 04:52:43;;;;;;;21.25;11.48;;;-3.80;99.90;;;;;;5031842;28;20040;-76
2021/12/22 04:55:09;;;;;;;29.67;13.50;;;-3.80;99.90;;;;;;5068329;28;20040;-76
2021/12/22 04:57:35;;;;;;;24.10;13.55;;;-3.80;99.90;;;;;;5031707;28;20113;-76
2021/12/22 05:00:04;;;;;;;24.73;14.23;;;-3.80;99.90;;;;;;5032405;28;20123;-76
2021/12/22 05:02:30;;;;;;;27.55;13.57;;;-3.70;99.90;;;;;;5028347;28;20036;-76
2021/12/22 05:04:55;;;;;;;25.05;14.35;;;-3.00;99.90;;;;;;5048071;28;20538;-77
2021/12/22 05:07:21;;;;;;;28.77;14.32;;;-2.90;99.90;;;;;;5028174;28;20060;-76
2021/12/22 05:09:47;;;;;;;25.73;14.20;;;-3.80;99.90;;;;;;5061787;28;20036;-76
2021/12/22 05:12:12;;;;;;;28.15;14.57;;;-3.80;99.90;;;;;;5047514;28;20040;-76
2021/12/22 05:14:39;;;;;;;23.33;13.00;;;-3.80;99.90;;;;;;5030832;28;20086;-76
2021/12/22 05:17:06;;;;;;;25.00;14.73;;;-3.80;99.90;;;;;;5028926;28;20467;-76
2021/12/22 05:19:32;;;;;;;24.58;13.07;;;-3.80;99.90;;;;;;5045180;28;20082;-76
2021/12/22 05:21:58;;;;;;;30.50;14.93;;;-3.80;99.90;;;;;;5030799;28;20036;-77
2021/12/22 05:24:24;;;;;;;27.97;14.07;;;-3.80;99.90;;;;;;5061379;28;20539;-76
2021/12/22 05:26:50;;;;;;;28.20;15.60;;;-3.30;99.90;;;;;;5012588;28;20040;-76
2021/12/22 05:29:16;;;;;;;27.10;13.90;;;-3.90;99.90;;;;;;5063633;28;20052;-76
2021/12/22 05:31:42;;;;;;;28.42;14.07;;;-3.90;99.90;;;;;;5046782;28;20044;-76
2021/12/22 05:34:08;;;;;;;27.20;14.25;;;-3.90;99.90;;;;;;5063749;28;20063;-77
2021/12/22 05:36:34;;;;;;;25.52;13.93;;;-3.20;99.90;;;;;;5062994;28;20116;-76
2021/12/22 05:39:00;;;;;;;23.80;13.50;;;-2.90;99.90;;;;;;5058384;28;20088;-76
2021/12/22 05:41:26;;;;;;;24.00;13.90;;;-3.90;99.90;;;;;;5025576;28;20047;-76
2021/12/22 05:43:52;;;;;;;25.50;13.47;;;-3.90;99.90;;;;;;5012448;28;20040;-76
2021/12/22 05:46:18;;;;;;;27.20;14.27;;;-3.90;99.90;;;;;;5061108;28;20500;-76
2021/12/22 05:48:44;;;;;;;24.80;13.07;;;-3.90;99.90;;;;;;5060235;28;20051;-76
2021/12/22 05:51:11;;;;;;;26.38;13.45;;;-4.20;99.90;;;;;;5072154;28;20041;-77
2021/12/22 05:53:37;;;;;;;25.25;14.40;;;-4.00;99.90;;;;;;5044730;28;20041;-76
2021/12/22 05:56:04;;;;;;;21.13;12.63;;;-4.10;99.90;;;;;;5043068;28;20108;-76
2021/12/22 05:58:30;;;;;;;27.17;15.27;;;-3.90;99.90;;;;;;5027751;28;20524;-77
2021/12/22 06:00:56;;;;;;;27.30;14.43;;;-3.60;99.90;;;;;;5011200;28;20040;-77
2021/12/22 06:03:22;;;;;;;28.83;15.43;;;-3.90;99.90;;;;;;5044044;28;20186;-76
2021/12/22 06:05:48;;;;;;;25.83;12.63;;;-4.00;99.90;;;;;;5034398;28;20131;-76
2021/12/22 06:08:13;;;;;;;24.48;12.77;;;-3.30;99.90;;;;;;5052063;28;20040;-76
2021/12/22 06:10:39;;;;;;;24.52;13.32;;;-4.00;99.90;;;;;;5052815;28;20043;-76
2021/12/22 06:13:07;;;;;;;28.30;15.25;;;-3.90;99.90;;;;;;5031686;28;20041;-76
2021/12/22 06:15:34;;;;;;;28.52;13.85;;;-4.00;99.90;;;;;;5046024;28;20041;-77
2021/12/22 06:18:02;;;;;;;26.27;13.45;;;-3.90;99.90;;;;;;5048102;28;20040;-76
2021/12/22 06:20:29;;;;;;;27.27;14.63;;;-3.90;99.90;;;;;;5077200;28;20409;-76
2021/12/22 06:22:55;;;;;;;25.67;13.75;;;-4.00;99.90;;;;;;5062931;28;20040;-77
2021/12/22 06:25:22;;;;;;;25.73;13.23;;;-3.90;99.90;;;;;;5031358;28;20090;-75
2021/12/22 06:27:48;;;;;;;26.33;14.63;;;-3.90;99.90;;;;;;5044147;28;20480;-75
2021/12/22 06:30:14;;;;;;;29.67;14.20;;;-3.90;99.90;;;;;;5046259;28;20029;-76
2021/12/22 06:32:40;;;;;;;27.00;14.30;;;-3.90;99.90;;;;;;5070692;28;20114;-75
2021/12/22 06:35:06;;;;;;;26.13;13.45;;;-3.90;99.90;;;;;;5045927;28;20472;-75
2021/12/22 06:37:32;;;;;;;24.95;13.65;;;-3.80;99.90;;;;;;5076009;28;20037;-75
2021/12/22 06:39:58;;;;;;;26.33;14.50;;;-3.80;99.90;;;;;;5044005;28;20033;-75
2021/12/22 06:42:24;;;;;;;27.10;13.35;;;-3.80;99.90;;;;;;5071976;28;20448;-75
2021/12/22 06:44:51;;;;;;;29.73;13.25;;;-3.40;99.90;;;;;;5034911;28;20051;-75
2021/12/22 06:47:17;;;;;;;29.80;14.77;;;-3.70;99.90;;;;;;5013941;28;20049;-75
2021/12/22 06:49:43;;;;;;;29.50;13.40;;;-3.80;99.90;;;;;;5045599;28;20035;-75
2021/12/22 06:52:09;;;;;;;30.27;14.25;;;-3.80;99.90;;;;;;5032945;28;20039;-75
2021/12/22 06:54:35;;;;;;;23.85;13.20;;;-3.70;99.90;;;;;;5062227;28;20037;-76
2021/12/22 06:57:01;;;;;;;26.85;14.82;;;-3.70;99.90;;;;;;5045948;28;20040;-76
2021/12/22 06:59:27;;;;;;;29.20;15.27;;;-3.00;99.90;;;;;;5031686;28;20032;-76
2021/12/22 07:01:53;;;;;;;27.63;13.80;;;-4.00;99.90;;;;;;4997664;28;20109;-75
2021/12/22 07:04:19;;;;;;;29.20;14.83;;;-3.70;99.90;;;;;;5075022;28;20136;-76
2021/12/22 07:06:45;;;;;;;28.65;13.93;;;-4.00;99.90;;;;;;5047047;28;20040;-73
2021/12/22 07:09:11;;;;;;;29.15;12.98;;;-3.90;99.90;;;;;;5013469;28;20064;-75
2021/12/22 07:11:38;;;;;;;31.52;15.18;;;-3.80;99.90;;;;;;5043485;28;20060;-75
2021/12/22 07:14:07;;;;;;;26.73;14.18;;;-3.50;99.90;;;;;;5026447;28;20037;-72
2021/12/22 07:16:33;;;;;;;31.85;15.35;;;-3.70;99.90;;;;;;5029413;28;20071;-74
2021/12/22 07:18:59;;;;;;;25.05;14.75;;;-3.80;99.90;;;;;;5079230;28;20128;-75
2021/12/22 07:21:25;;;;;;;28.17;14.65;;;-3.80;99.90;;;;;;5062438;28;20045;-76
2021/12/22 07:23:51;;;;;;;26.77;14.00;;;-3.80;99.90;;;;;;5047949;28;20538;-75
2021/12/22 07:26:17;;;;;;;24.70;14.15;;;-3.90;99.90;;;;;;5029535;28;20043;-74
2021/12/22 07:28:45;;;;;;;27.73;15.00;;;-3.80;99.90;;;;;;5043955;28;20052;-75
2021/12/22 07:31:12;;;;;;;27.02;14.88;;;-3.70;99.90;;;;;;5028698;28;20040;-75
2021/12/22 07:33:38;;;;;;;32.72;14.40;;;-3.70;99.90;;;;;;5081053;28;20033;-75
2021/12/22 07:36:05;;;;;;;27.65;14.30;;;-3.70;99.90;;;;;;5033911;28;20058;-74
2021/12/22 07:38:36;;;;;;;24.08;14.07;;;-3.70;99.90;;;;;;5052555;28;20045;-74
2021/12/22 07:41:03;;;;;;;28.20;13.93;;;-3.70;99.90;;;;;;5048887;28;20576;-75
2021/12/22 07:43:30;;;;;;;30.88;15.43;;;-3.70;99.90;;;;;;5067478;28;20037;-75
2021/12/22 07:45:56;;;;;;;28.52;15.52;;;-3.60;99.90;;;;;;5029841;28;20555;-75
2021/12/22 07:48:22;;;;;;;26.77;15.37;;;-3.70;99.90;;;;;;5057788;28;20063;-75
2021/12/22 07:50:48;;;;;;;29.27;15.80;;;-3.70;99.90;;;;;;5081734;28;20041;-74
2021/12/22 07:53:14;;;;;;;29.65;15.73;;;-3.70;99.90;;;;;;5079660;28;20153;-74
2021/12/22 07:55:40;;;;;;;28.38;15.05;;;-3.70;99.90;;;;;;5048641;28;20041;-74
2021/12/22 07:58:07;;;;;;;29.65;15.15;;;-3.80;99.90;;;;;;5015936;28;20070;-75
2021/12/22 08:00:34;;;;;;;30.45;15.40;;;-3.80;99.90;;;;;;5062895;28;20052;-74
2021/12/22 08:03:00;;;;;;;25.73;14.75;;;-3.60;99.90;;;;;;5064386;28;20056;-76
2021/12/22 08:05:26;;;;;;;28.83;14.60;;;-3.50;99.90;;;;;;5029490;28;20052;-74
2021/12/22 08:07:51;;;;;;;26.70;14.23;;;-3.40;99.90;;;;;;5065751;28;20044;-74
2021/12/22 08:10:17;;;;;;;31.13;15.37;;;-3.50;99.90;;;;;;5049385;28;20480;-75
2021/12/22 08:12:43;;;;;;;28.45;15.77;;;-3.40;99.90;;;;;;5045558;28;20040;-75
2021/12/22 08:15:09;;;;;;;27.35;14.75;;;-3.30;99.90;;;;;;5066844;28;20076;-75
2021/12/22 08:17:35;;;;;;;28.55;15.07;;;-3.20;99.90;;;;;;5045463;28;20093;-75
2021/12/22 08:20:03;;;;;;;32.05;14.82;;;-3.60;99.90;;;;;;5045988;28;20083;-74
2021/12/22 08:22:29;;;;;;;29.23;15.82;;;-3.40;99.90;;;;;;5079581;28;20504;-75
2021/12/22 08:24:54;;;;;;;23.50;13.07;;;-3.20;99.90;;;;;;5029857;28;20032;-75
2021/12/22 08:27:23;;;;;;;28.67;15.07;;;-3.20;99.90;;;;;;5032948;28;20041;-75
2021/12/22 08:29:50;;;;;;;26.63;14.60;;;-3.30;99.90;;;;;;5032654;28;20110;-74
2021/12/22 08:32:17;;;;;;;26.00;14.73;;;-3.10;99.90;;;;;;5048963;28;20059;-75
2021/12/22 08:34:43;;;;;;;24.88;13.68;;;-3.00;99.90;;;;;;5046103;28;20115;-75
2021/12/22 08:39:56;;;;;;;26.48;14.60;;;-3.00;99.90;;;;;;5032289;28;20503;-75
2021/12/22 08:42:22;;;;;;;27.30;14.80;;;-3.00;99.90;;;;;;5031647;28;20048;-75
2021/12/22 08:44:49;;;;;;;26.70;13.85;;;-3.20;99.90;;;;;;5015286;28;20115;-75
2021/12/22 08:47:15;;;;;;;25.02;13.23;;;-2.60;99.90;;;;;;5028907;28;20194;-75
2021/12/22 08:49:43;;;;;;;26.83;14.30;;;-3.00;99.90;;;;;;5061226;28;20072;-75
2021/12/22 08:52:08;;;;;;;27.23;14.60;;;-2.80;99.90;;;;;;5028626;28;20065;-75
2021/12/22 08:54:34;;;;;;;28.45;15.18;;;-2.90;99.90;;;;;;5042435;28;20029;-75
2021/12/22 08:57:00;;;;;;;27.58;14.52;;;-2.80;99.90;;;;;;5048745;28;20115;-75
2021/12/22 08:59:26;;;;;;;26.52;13.45;;;-2.80;99.90;;;;;;5044022;28;20151;-75
2021/12/22 09:01:53;;;;;;;25.90;15.80;;;-2.70;99.90;;;;;;5058970;28;20081;-75
2021/12/22 09:04:22;;;;;;;26.50;14.15;;;-2.90;99.90;;;;;;5076563;28;20051;-74
2021/12/22 09:06:50;;;;;;;27.38;15.00;;;-2.60;99.90;;;;;;5046576;28;20037;-75
2021/12/22 09:09:16;;;;;;;31.10;14.68;;;-2.60;99.90;;;;;;5046075;28;20044;-74
2021/12/22 09:11:42;;;;;;;27.42;14.25;;;-2.50;99.90;;;;;;5050345;28;20039;-73
2021/12/22 09:14:09;;;;;;;28.67;14.70;;;-2.50;99.90;;;;;;5065391;28;20040;-76
2021/12/22 09:16:37;;;;;;;29.85;15.20;;;-2.00;99.90;;;;;;5082849;28;20033;-76
2021/12/22 09:19:04;;;;;;;26.08;14.73;;;-2.50;99.90;;;;;;5043117;28;20052;-76
2021/12/22 09:21:30;;;;;;;26.58;13.18;;;-1.60;99.90;;;;;;5028198;28;20094;-76
2021/12/22 09:23:56;;;;;;;24.70;14.68;;;-2.40;99.90;;;;;;5046081;28;20045;-75
2021/12/22 09:26:22;;;;;;;27.73;14.48;;;-2.60;99.90;;;;;;5049523;28;20043;-75
2021/12/22 09:28:48;;;;;;;26.75;14.68;;;-2.40;99.90;;;;;;5062239;28;20040;-76
2021/12/22 09:31:13;;;;;;;26.02;13.82;;;-2.30;99.90;;;;;;5039381;28;20033;-76
2021/12/22 09:33:40;;;;;;;31.25;14.60;;;-1.60;99.90;;;;;;5002429;28;20036;-76
2021/12/22 09:36:10;;;;;;;30.27;14.95;;;-2.30;99.90;;;;;;5079196;28;20032;-76
2021/12/22 09:38:35;;;;;;;27.38;14.25;;;-2.20;99.90;;;;;;5044030;28;20484;-77
2021/12/22 09:41:03;;;;;;;27.67;14.10;;;-2.20;99.90;;;;;;5048005;28;20063;-76
2021/12/22 09:43:29;;;;;;;26.33;14.40;;;-2.10;99.90;;;;;;5051048;28;20036;-76
2021/12/22 09:46:04;;;;;;;27.65;14.65;;;-2.10;99.90;;;;;;5063288;28;20032;-75
2021/12/22 09:53:27;;;;;;;29.63;16.65;;;-1.50;99.90;;;;;;5064562;28;20502;-74
2021/12/22 09:55:54;;;;;;;28.95;15.32;;;;;;;;;;5086211;28;20041;-75
2021/12/22 09:58:21;;;;;;;27.05;15.38;;;-1.70;99.90;;;;;;5081142;28;20040;-75
2021/12/22 10:00:51;;;;;;;27.40;15.27;;;-1.70;99.90;;;;;;5045642;28;20036;-75
2021/12/22 10:03:17;;;;;;;29.10;13.35;;;-1.50;99.90;;;;;;5057266;28;20102;-75
2021/12/22 10:05:46;;;;;;;28.23;14.88;;;-1.60;99.90;;;;;;5041698;28;20032;-74
2021/12/22 10:08:14;;;;;;;24.88;14.30;;;-0.90;99.90;;;;;;5028392;28;20365;-75
2021/12/22 10:10:46;;;;;;;28.92;14.23;;;-1.60;99.90;;;;;;5034544;28;20409;-75
2021/12/22 10:13:19;;;;;;;23.38;12.88;;;-1.60;99.90;;;;;;5053662;28;20059;-74
2021/12/22 10:15:46;;;;;;;26.33;14.75;;;-1.60;99.90;;;;;;5031282;28;20536;-74
2021/12/22 10:18:23;;;;;;;26.20;13.27;;;-1.60;99.90;;;;;;5084556;28;20079;-75
2021/12/22 10:20:53;;;;;;;25.80;13.27;;;-1.50;99.90;;;;;;5052729;28;20033;-75
2021/12/22 10:23:22;;;;;;;24.90;14.20;;;-1.50;99.90;;;;;;5050864;28;20040;-76
2021/12/22 10:25:55;;;;;;;23.08;12.90;;;-1.40;99.90;;;;;;5061727;28;20050;-75
2021/12/22 10:28:22;;;;;;;21.58;12.35;;;-1.40;99.90;;;;;;5078976;28;20051;-75
2021/12/22 10:30:55;;;;;;;20.90;13.30;;;-1.30;99.90;;;;;;5031477;28;20035;-76
2021/12/22 10:33:31;;;;;;;24.30;13.00;;;-1.30;99.90;;;;;;5032226;28;20043;-77
2021/12/22 10:36:01;;;;;;;22.77;13.00;;;-1.30;99.90;;;;;;5028957;28;20709;-76
2021/12/22 10:38:30;;;;;;;21.35;13.50;;;-1.00;99.90;;;;;;5047303;28;20062;-76
2021/12/22 10:41:00;;;;;;;23.70;13.85;;;-1.20;99.90;;;;;;5077487;28;20415;-76
2021/12/22 10:43:32;;;;;;;20.38;13.30;;;-1.10;99.90;;;;;;5063536;28;20036;-76
2021/12/22 10:46:00;;;;;;;21.80;11.82;;;-0.70;99.90;;;;;;5046714;28;20036;-76
2021/12/22 10:51:33;;;;;;;18.83;10.50;;;-0.90;99.90;;;;;;5076371;28;20045;-76
2021/12/22 10:54:00;;;;;;;16.77;10.75;;;-0.80;99.90;;;;;;5027368;28;20036;-76
2021/12/22 10:56:30;;;;;;;23.23;11.15;;;-0.80;99.90;;;;;;5052889;28;20123;-75
2021/12/22 10:59:16;;;;;;;17.70;10.55;;;-0.80;99.90;;;;;;5046608;28;20459;-75
2021/12/22 11:02:07;;;;;;;18.10;11.57;;;-0.80;99.90;;;;;;5063790;28;20067;-76
2021/12/22 11:04:34;;;;;;;22.10;11.20;;;-0.80;99.90;;;;;;5058100;28;20036;-76
2021/12/22 11:07:22;;;;;;;17.83;12.00;;;-0.80;99.90;;;;;;5066280;28;20372;-76
2021/12/22 11:09:49;;;;;;;22.90;11.35;;;-0.70;99.90;;;;;;5059147;28;20101;-78
2021/12/22 11:12:17;;;;;;;20.58;11.68;;;-0.50;99.90;;;;;;5041684;28;20036;-75
2021/12/22 11:14:47;;;;;;;20.38;11.65;;;-0.60;99.90;;;;;;5074273;28;20056;-77
2021/12/22 11:17:19;;;;;;;18.45;11.20;;;-0.60;99.90;;;;;;5061610;28;20488;-77
2021/12/22 11:19:48;;;;;;;19.98;11.55;;;0.50;99.90;;;;;;5070951;28;20183;-78
2021/12/22 11:22:15;;;;;;;18.10;9.98;;;-0.60;99.90;;;;;;5028828;28;20079;-78
2021/12/22 11:24:50;;;;;;;18.35;11.15;;;-0.40;99.90;;;;;;5013339;28;20048;-78
2021/12/22 11:27:25;;;;;;;17.50;9.40;;;-0.60;99.90;;;;;;5046717;28;20127;-78
2021/12/22 11:29:55;;;;;;;16.58;10.25;;;-0.20;99.90;;;;;;5069814;28;20128;-78
2021/12/22 11:32:22;;;;;;;18.02;10.40;;;-0.50;99.90;;;;;;5030378;28;20085;-78
2021/12/22 11:34:51;;;;;;;17.67;9.70;;;-0.40;99.90;;;;;;5045469;28;20047;-77
2021/12/22 11:37:18;;;;;;;18.33;10.18;;;-0.40;99.90;;;;;;5024800;28;20116;-77
2021/12/22 11:39:45;;;;;;;17.85;9.65;;;-0.30;99.90;;;;;;5058222;28;20040;-78
2021/12/22 11:42:13;;;;;;;19.08;9.35;;;-0.20;99.90;;;;;;5047290;28;20052;-78
2021/12/22 11:44:40;;;;;;;18.50;10.43;;;-0.20;99.90;;;;;;4997180;28;20090;-78
2021/12/22 11:47:11;;;;;;;18.85;11.25;;;-0.20;99.90;;;;;;5026159;28;20375;-76
2021/12/22 11:49:55;;;;;;;18.70;10.70;;;-0.10;99.90;;;;;;5047902;28;20040;-77
2021/12/22 11:52:36;;;;;;;16.85;9.63;;;0.00;99.90;;;;;;5071095;28;20055;-78
2021/12/22 11:55:23;;;;;;;18.35;9.77;;;0.20;99.90;;;;;;5075357;28;20497;-79
2021/12/22 11:57:52;;;;;;;21.10;9.23;;;0.40;99.90;;;;;;5026207;28;20037;-79
2021/12/22 12:00:30;;;;;;;20.88;10.25;;;0.60;99.90;;;;;;5045111;28;20035;-76
2021/12/22 12:02:59;;;;;;;17.92;11.15;;;0.60;99.90;;;;;;5063189;28;20500;-76
2021/12/22 12:05:34;;;;;;;15.80;10.15;;;0.60;99.90;;;;;;5073948;28;20040;-76
2021/12/22 12:08:07;;;;;;;20.15;9.45;;;0.50;99.90;;;;;;5012234;28;20068;-76
2021/12/22 12:10:50;;;;;;;17.65;10.98;;;0.40;99.90;;;;;;5066082;28;20133;-75
2021/12/22 12:13:25;;;;;;;21.02;10.48;;;0.40;99.90;;;;;;5048820;28;20047;-75
2021/12/22 12:22:00;;;;;;;19.48;9.98;;;0.20;99.90;;;;;;5081130;28;20041;-78
2021/12/22 12:24:31;;;;;;;16.95;10.80;;;0.10;99.90;;;;;;5049126;28;20131;-78
2021/12/22 12:26:58;;;;;;;;;;;0.00;99.90;;;;;;5056170;28;20055;-79
2021/12/22 12:29:58;;;;;;;18.52;10.15;;;0.00;99.90;;;;;;5066606;28;20012;-78
2021/12/22 12:32:39;;;;;;;17.85;9.48;;;0.00;99.90;;;;;;5049480;28;20033;-78
2021/12/22 12:35:23;;;;;;;18.42;10.05;;;-0.10;99.90;;;;;;5046522;28;20044;-78
2021/12/22 12:38:09;;;;;;;19.10;11.05;;;0.80;99.90;;;;;;5085766;28;20036;-78
2021/12/22 12:41:05;;;;;;;18.77;11.63;;;0.00;99.90;;;;;;5032480;28;20045;-76
2021/12/22 12:43:51;;;;;;;20.35;11.18;;;0.10;99.90;;;;;;5062146;28;20047;-77
2021/12/22 12:46:20;;;;;;;18.20;10.35;;;0.10;99.90;;;;;;5051235;28;20432;-78
2021/12/22 12:48:49;;;;;;;17.38;10.23;;;0.10;99.90;;;;;;5068684;28;20044;-79
2021/12/22 12:51:33;;;;;;;15.85;10.40;;;1.20;99.90;;;;;;5032150;28;20548;-78
2021/12/22 12:54:07;;;;;;;17.85;10.23;;;0.10;99.90;;;;;;5084533;28;20037;-77
2021/12/22 12:56:41;;;;;;;17.70;10.77;;;0.40;99.90;;;;;;5050386;28;20048;-79
2021/12/22 12:59:27;;;;;;;16.25;9.73;;;0.20;99.90;;;;;;5048738;28;20041;-78
2021/12/22 13:02:00;;;;;;;16.83;10.85;;;0.10;99.90;;;;;;5053892;28;20061;-75
2021/12/22 13:04:35;;;;;;;15.70;9.38;;;0.10;99.90;;;;;;5034205;28;20033;-76